Aeroporto :
LOGIN :

Iscrizione | Disclaimer

   EN    FR    IT 

 










Sommario :    VFR   VFR Marginale   IFR   IFR Intensivo   IFR Molto Intensivo
Visibilità : 
Base nubi : 
>= 8 km
>= 3000ft
5 / 8 km
1000 / 3000 ft
1500m / 5 km
500 / 1000 ft
800 / 1500m
200 / 500 ft
< 800m
< 200 ft
Simboli :   Temporali  Nebbia  Neve Forte  Precipitazioni Forti  Vento > 20 kt
SIGMETs :   Varie  Temporali  Ghiacco  Turbolenza  Onda orograficha  Ceneri Vulcaniche






- Altitudine del aeroporto : 294 ft
- Codice IATA : NAP


LIRN - Naples Capodichino

ULTIMO METAR :
  • 240520Z VRB02KT 3000 RA BKN040 OVC060 08/06 Q1008 TEMPO TSRA

METARs OBSOLETI :
  • 240450Z 07004KT 050V110 9999 -RA FEW025 BKN065 08/06 Q1008 NOSIG
  • 240420Z 04003KT 330V110 9999 -RA BKN050 OVC060 08/06 Q1008 NOSIG
  • 240350Z 33007KT 300V360 9999 -RA BKN040 08/07 Q1008 NOSIG
  • 240320Z 28013KT 250V320 7000 -SHRA FEW015TCU BKN045 08/06 Q1008 TEMPO 4000 TSRA
  • 240250Z VRB03KT 8000 -RA SCT025TCU BKN045 10/08 Q1007 TEMPO 4000 TSRA
  • 240220Z 17003KT 100V240 9999 -RA BKN040 10/08 Q1007 TEMPO 4000 TSRA
  • 240150Z 16004G14KT 100V220 8000 -RA BKN030 10/05 Q1008 NOSIG
  • 240120Z VRB02KT 9999 -RA SCT050 10/04 Q1008 NOSIG
  • 240050Z 06003KT CAVOK 09/03 Q1008 NOSIG

TAF TAF LIRN
Valido dal 24 a 06 ore il 25 a 06 ore UTC


240500Z 2406/2506 27007KT 9999 SCT030
TEMPO 2406/2415 4000 TSRA
BECMG 2406/2408 21010KT
BECMG 2416/2418 VRB05KT



MetMap, La meteo Aeronautica in un colpo d'occhio ! - Copyright ORBIFLY Dicembre 2007 - Disclaimer

ORBIFLY MET'MAP TEAM :

Programmazione e sviluppo : Alexandra Zaïnal
Concezione : Baudouin d'Aumeries
Supporto tecnico e logistico : Manuel Goepfert
Aiuto : Marc-Olivier Méhu
Aiuto per la traduzione : Arnaldo La Scala




FONTI E CREDITI :

   NOAA